createdAt,value
2022-12-14T00:00:44.462Z,75.52
2022-12-14T00:01:49.238Z,75.74
2022-12-14T00:02:45.498Z,75.52
2022-12-14T00:03:44.408Z,75.42
2022-12-14T00:04:44.361Z,75.42
2022-12-14T00:05:44.338Z,75.42
2022-12-14T00:06:44.320Z,75.95
2022-12-14T00:07:44.320Z,75.74
2022-12-14T00:08:44.300Z,75.42
2022-12-14T00:09:44.310Z,75.52
2022-12-14T00:10:44.270Z,75.32
2022-12-14T00:11:44.271Z,75.00
2022-12-14T00:12:44.242Z,74.90
2022-12-14T00:13:44.231Z,74.68
2022-12-14T00:14:44.267Z,74.48
2022-12-14T00:15:44.267Z,74.58
2022-12-14T00:16:44.197Z,74.48
2022-12-14T00:17:44.188Z,74.37
2022-12-14T00:18:44.172Z,74.48
2022-12-14T00:19:44.179Z,74.68
2022-12-14T00:20:44.140Z,74.79
2022-12-14T00:21:44.137Z,74.90
2022-12-14T00:22:44.109Z,74.68
2022-12-14T00:23:44.110Z,74.48
2022-12-14T00:24:44.110Z,74.68
2022-12-14T00:25:44.088Z,74.68
2022-12-14T00:26:45.137Z,74.68
2022-12-14T00:27:44.057Z,74.79
2022-12-14T00:28:44.038Z,74.79
2022-12-14T00:29:44.038Z,75.00
2022-12-14T00:30:44.058Z,74.90
2022-12-14T00:31:44.081Z,74.58
2022-12-14T00:32:43.996Z,74.37
2022-12-14T00:33:43.990Z,74.27
2022-12-14T00:34:43.981Z,74.48
2022-12-14T00:35:43.960Z,74.79
2022-12-14T00:36:43.946Z,74.62
2022-12-14T00:37:43.937Z,74.72
2022-12-14T00:38:44.970Z,74.82
2022-12-14T00:39:43.925Z,74.72
2022-12-14T00:40:43.897Z,74.72
2022-12-14T00:41:43.878Z,74.93
2022-12-14T00:42:43.881Z,75.14
2022-12-14T00:43:43.875Z,75.04
2022-12-14T00:44:43.971Z,74.82
2022-12-14T00:45:43.824Z,74.93
2022-12-14T00:46:43.856Z,75.14
2022-12-14T00:47:43.805Z,75.14
2022-12-14T00:48:43.815Z,75.14
2022-12-14T00:49:43.797Z,75.46
2022-12-14T00:50:43.766Z,75.35
2022-12-14T00:51:44.755Z,75.46
2022-12-14T00:52:43.727Z,75.56
2022-12-14T00:53:43.739Z,75.46
2022-12-14T00:54:43.722Z,75.56
2022-12-14T00:55:43.787Z,75.56
2022-12-14T00:56:43.685Z,75.35
2022-12-14T00:57:43.683Z,75.35
2022-12-14T00:58:43.662Z,75.46
2022-12-14T00:59:43.667Z,75.32
2022-12-14T01:00:43.665Z,74.90
2022-12-14T01:01:43.743Z,74.90
2022-12-14T01:02:43.694Z,74.93
2022-12-14T01:03:43.663Z,74.93
2022-12-14T01:04:43.601Z,75.04
2022-12-14T01:05:49.005Z,75.14
2022-12-14T01:06:44.554Z,74.79
2022-12-14T01:07:43.556Z,74.90
2022-12-14T01:08:44.535Z,74.79
2022-12-14T01:09:43.524Z,75.21
2022-12-14T01:10:43.534Z,74.93
2022-12-14T01:11:43.495Z,74.93
2022-12-14T01:12:43.534Z,74.82
2022-12-14T01:13:43.476Z,74.62
2022-12-14T01:14:43.459Z,74.72
2022-12-14T01:15:43.521Z,74.82
2022-12-14T01:16:43.433Z,75.00
2022-12-14T01:17:43.425Z,75.32
2022-12-14T01:18:43.458Z,74.79
2022-12-14T01:19:43.393Z,74.79
2022-12-14T01:20:43.380Z,74.90
2022-12-14T01:21:43.362Z,74.58
2022-12-14T01:22:43.354Z,74.68
2022-12-14T01:23:43.343Z,74.58
2022-12-14T01:24:43.332Z,74.16
2022-12-14T01:25:43.332Z,74.05
2022-12-14T01:26:43.303Z,74.27
2022-12-14T01:27:43.283Z,74.05
2022-12-14T01:28:43.272Z,74.16
2022-12-14T01:29:43.262Z,74.48
2022-12-14T01:30:43.263Z,74.37
2022-12-14T01:31:43.261Z,74.16
2022-12-14T01:32:43.213Z,74.19
2022-12-14T01:33:43.226Z,74.51
2022-12-14T01:34:43.202Z,74.79
2022-12-14T01:35:43.202Z,75.00
2022-12-14T01:36:43.173Z,75.32
2022-12-14T01:37:43.161Z,75.21
2022-12-14T01:38:43.143Z,74.79
2022-12-14T01:39:43.132Z,74.37
2022-12-14T01:40:43.132Z,74.27
2022-12-14T01:41:43.112Z,74.09
2022-12-14T01:42:43.092Z,73.99
2022-12-14T01:43:43.081Z,73.99
2022-12-14T01:44:43.061Z,74.19
2022-12-14T01:45:43.272Z,74.30
2022-12-14T01:46:43.067Z,73.77
2022-12-14T01:47:43.032Z,73.67
2022-12-14T01:48:43.011Z,73.99
2022-12-14T01:49:43.008Z,73.99
2022-12-14T01:50:42.991Z,74.19
2022-12-14T01:51:42.999Z,73.88
2022-12-14T01:52:42.965Z,73.99
2022-12-14T01:53:42.960Z,74.09
2022-12-14T01:54:42.929Z,73.67
2022-12-14T01:55:48.679Z,73.85
2022-12-14T01:56:43.920Z,74.05
2022-12-14T01:57:42.910Z,74.16
2022-12-14T01:58:42.880Z,73.95
2022-12-14T01:59:42.890Z,74.30
2022-12-14T02:00:42.862Z,74.62
2022-12-14T02:01:42.990Z,74.62
2022-12-14T02:02:42.884Z,74.82
2022-12-14T02:03:42.858Z,74.72
2022-12-14T02:04:42.799Z,74.09
2022-12-14T02:05:42.800Z,74.40
2022-12-14T02:06:42.799Z,74.82
2022-12-14T02:07:42.780Z,75.14
2022-12-14T02:08:43.750Z,74.93
2022-12-14T02:09:42.747Z,75.04
2022-12-14T02:10:42.730Z,74.62
2022-12-14T02:11:42.737Z,74.72
2022-12-14T02:12:42.700Z,75.14
2022-12-14T02:13:42.698Z,74.82
2022-12-14T02:14:42.680Z,74.82
2022-12-14T02:15:42.667Z,74.51
2022-12-14T02:16:42.678Z,73.99
2022-12-14T02:17:42.647Z,74.40
2022-12-14T02:18:42.619Z,74.72
2022-12-14T02:19:42.617Z,74.40
2022-12-14T02:20:42.716Z,74.51
2022-12-14T02:21:42.598Z,74.82
2022-12-14T02:22:42.596Z,74.72
2022-12-14T02:23:42.570Z,74.93
2022-12-14T02:24:42.558Z,74.82
2022-12-14T02:25:42.545Z,74.72
2022-12-14T02:26:42.535Z,74.51
2022-12-14T02:27:42.543Z,74.30
2022-12-14T02:28:42.494Z,74.30
2022-12-14T02:29:42.486Z,74.62
2022-12-14T02:30:42.474Z,74.30
2022-12-14T02:31:42.507Z,74.51
2022-12-14T02:32:42.464Z,73.88
2022-12-14T02:33:42.439Z,73.77
2022-12-14T02:34:42.431Z,73.77
2022-12-14T02:35:42.416Z,73.77
2022-12-14T02:36:42.549Z,73.88
2022-12-14T02:37:42.406Z,73.77
2022-12-14T02:38:42.375Z,73.77
2022-12-14T02:39:42.359Z,73.57
2022-12-14T02:40:42.379Z,73.67
2022-12-14T02:41:42.337Z,73.67
2022-12-14T02:42:42.336Z,73.67
2022-12-14T02:43:42.306Z,73.77
2022-12-14T02:44:42.322Z,73.57
2022-12-14T02:45:42.285Z,73.35
2022-12-14T02:46:45.099Z,73.46
2022-12-14T02:47:43.276Z,73.46
2022-12-14T02:48:42.243Z,73.46
2022-12-14T02:49:42.226Z,73.77
2022-12-14T02:50:43.214Z,73.57
2022-12-14T02:51:42.209Z,73.14
2022-12-14T02:52:42.229Z,73.25
2022-12-14T02:53:42.176Z,73.04
2022-12-14T02:54:42.162Z,72.62
2022-12-14T02:55:42.164Z,72.93
2022-12-14T02:56:42.132Z,73.35
2022-12-14T02:57:42.144Z,73.46
2022-12-14T02:58:42.114Z,73.35
2022-12-14T02:59:42.104Z,73.25
2022-12-14T03:00:42.143Z,73.14
2022-12-14T03:01:42.279Z,73.25
2022-12-14T03:02:43.289Z,73.35
2022-12-14T03:03:42.047Z,72.72
2022-12-14T03:04:42.035Z,72.83
2022-12-14T03:05:42.024Z,73.14
2022-12-14T03:06:42.006Z,73.35
2022-12-14T03:07:41.994Z,73.25
2022-12-14T03:08:42.003Z,73.14
2022-12-14T03:09:41.973Z,72.93
2022-12-14T03:10:41.955Z,72.62
2022-12-14T03:11:41.944Z,72.93
2022-12-14T03:12:41.932Z,73.57
2022-12-14T03:13:41.942Z,73.35
2022-12-14T03:14:41.902Z,73.46
2022-12-14T03:15:41.899Z,73.57
2022-12-14T03:16:41.911Z,73.77
2022-12-14T03:17:41.863Z,73.77
2022-12-14T03:18:41.873Z,73.57
2022-12-14T03:19:41.844Z,73.00
2022-12-14T03:20:41.832Z,72.72
2022-12-14T03:21:41.812Z,72.72
2022-12-14T03:22:41.813Z,73.04
2022-12-14T03:23:41.813Z,73.46
2022-12-14T03:24:41.772Z,73.04
2022-12-14T03:25:41.762Z,72.93
2022-12-14T03:26:47.189Z,73.14
2022-12-14T03:27:42.732Z,73.14
2022-12-14T03:28:41.734Z,73.04
2022-12-14T03:29:41.731Z,73.04
2022-12-14T03:31:00.024Z,73.25
2022-12-14T03:31:42.734Z,73.46
2022-12-14T03:32:42.678Z,73.04
2022-12-14T03:33:41.691Z,73.35
2022-12-14T03:34:41.676Z,72.72
2022-12-14T03:35:41.630Z,72.93
2022-12-14T03:36:41.631Z,73.04
2022-12-14T03:37:41.601Z,72.93
2022-12-14T03:38:41.599Z,73.25
2022-12-14T03:39:41.600Z,73.67
2022-12-14T03:40:41.572Z,73.77
2022-12-14T03:41:41.550Z,73.67
2022-12-14T03:42:41.551Z,73.46
2022-12-14T03:43:41.536Z,73.14
2022-12-14T03:44:49.544Z,73.14
2022-12-14T03:45:42.602Z,73.14
2022-12-14T03:46:41.497Z,72.93
2022-12-14T03:47:41.471Z,73.11
2022-12-14T03:48:41.469Z,73.35
2022-12-14T03:49:41.470Z,73.25
2022-12-14T03:50:41.449Z,73.14
2022-12-14T03:51:41.428Z,73.25
2022-12-14T03:52:41.419Z,73.14
2022-12-14T03:53:41.410Z,72.93
2022-12-14T03:54:41.416Z,72.83
2022-12-14T03:55:41.370Z,73.14
2022-12-14T03:56:41.368Z,72.93
2022-12-14T03:57:41.357Z,72.93
2022-12-14T03:58:41.349Z,72.93
2022-12-14T03:59:41.341Z,72.72
2022-12-14T04:00:41.334Z,72.72
2022-12-14T04:01:41.430Z,73.25
2022-12-14T04:02:41.459Z,73.04
2022-12-14T04:03:41.270Z,72.51
2022-12-14T04:04:41.277Z,72.51
2022-12-14T04:05:47.006Z,72.80
2022-12-14T04:06:42.236Z,72.51
2022-12-14T04:07:41.233Z,73.00
2022-12-14T04:08:41.220Z,73.00
2022-12-14T04:09:41.214Z,73.00
2022-12-14T04:10:41.187Z,73.22
2022-12-14T04:11:41.167Z,73.25
2022-12-14T04:12:42.596Z,73.11
2022-12-14T04:13:41.149Z,73.32
2022-12-14T04:14:41.160Z,73.32
2022-12-14T04:15:41.134Z,72.90
2022-12-14T04:16:41.154Z,72.80
2022-12-14T04:17:41.094Z,73.11
2022-12-14T04:18:41.085Z,73.43
2022-12-14T04:19:41.085Z,73.53
2022-12-14T04:20:41.059Z,73.63
2022-12-14T04:21:41.048Z,73.95
2022-12-14T04:22:41.046Z,73.32
2022-12-14T04:23:41.015Z,73.32
2022-12-14T04:24:41.027Z,73.00
2022-12-14T04:25:41.005Z,73.11
2022-12-14T04:26:40.976Z,73.22
2022-12-14T04:27:40.965Z,73.11
2022-12-14T04:28:40.956Z,72.69
2022-12-14T04:29:45.739Z,72.48
2022-12-14T04:30:41.928Z,72.58
2022-12-14T04:31:40.943Z,72.27
2022-12-14T04:32:40.977Z,72.58
2022-12-14T04:33:40.885Z,73.04
2022-12-14T04:34:40.895Z,73.46
2022-12-14T04:35:40.865Z,73.46
2022-12-14T04:36:40.857Z,73.67
2022-12-14T04:37:40.834Z,74.09
2022-12-14T04:38:40.826Z,74.40
2022-12-14T04:39:40.813Z,74.19
2022-12-14T04:40:40.816Z,74.09
2022-12-14T04:41:40.786Z,74.09
2022-12-14T04:42:40.775Z,74.05
2022-12-14T04:43:40.764Z,73.74
2022-12-14T04:44:40.755Z,73.63
2022-12-14T04:45:40.828Z,73.85
2022-12-14T04:46:41.129Z,73.53
2022-12-14T04:47:40.702Z,73.43
2022-12-14T04:48:40.684Z,73.00
2022-12-14T04:49:40.685Z,73.00
2022-12-14T04:50:40.693Z,73.43
2022-12-14T04:51:40.653Z,74.05
2022-12-14T04:52:40.643Z,74.37
2022-12-14T04:53:40.635Z,73.85
2022-12-14T04:54:40.605Z,73.74
2022-12-14T04:55:40.627Z,73.95
2022-12-14T04:56:40.593Z,73.53
2022-12-14T04:57:40.565Z,73.85
2022-12-14T04:58:40.619Z,73.74
2022-12-14T04:59:40.552Z,73.53
2022-12-14T05:00:40.555Z,73.32
2022-12-14T05:01:40.638Z,73.22
2022-12-14T05:02:40.716Z,73.63
2022-12-14T05:03:47.658Z,73.63
2022-12-14T05:04:40.488Z,73.43
2022-12-14T05:05:40.490Z,73.43
2022-12-14T05:06:40.468Z,73.43
2022-12-14T05:07:40.445Z,73.53
2022-12-14T05:08:40.437Z,73.32
2022-12-14T05:09:40.425Z,73.32
2022-12-14T05:10:40.444Z,73.43
2022-12-14T05:11:53.244Z,73.43
2022-12-14T05:12:41.388Z,73.32
2022-12-14T05:13:40.378Z,73.22
2022-12-14T05:14:40.371Z,73.32
2022-12-14T05:15:40.363Z,73.22
2022-12-14T05:16:40.380Z,73.53
2022-12-14T05:17:40.335Z,73.63
2022-12-14T05:18:40.307Z,73.00
2022-12-14T05:19:40.293Z,72.80
2022-12-14T05:20:40.306Z,73.00
2022-12-14T05:21:40.269Z,72.80
2022-12-14T05:22:40.257Z,73.11
2022-12-14T05:23:40.247Z,72.90
2022-12-14T05:24:40.235Z,72.48
2022-12-14T05:25:40.237Z,72.38
2022-12-14T05:26:40.207Z,72.69
2022-12-14T05:27:40.193Z,72.80
2022-12-14T05:28:40.176Z,72.69
2022-12-14T05:29:40.167Z,72.80
2022-12-14T05:30:40.246Z,73.00
2022-12-14T05:31:40.213Z,72.69
2022-12-14T05:32:40.126Z,72.48
2022-12-14T05:33:40.114Z,72.48
2022-12-14T05:34:40.105Z,72.48
2022-12-14T05:35:40.105Z,72.69
2022-12-14T05:36:40.075Z,72.90
2022-12-14T05:37:40.075Z,73.00
2022-12-14T05:38:40.054Z,73.00
2022-12-14T05:39:40.040Z,72.80
2022-12-14T05:40:40.045Z,72.90
2022-12-14T05:41:40.014Z,73.11
2022-12-14T05:42:44.804Z,73.11
2022-12-14T05:43:40.983Z,72.69
2022-12-14T05:44:39.976Z,72.58
2022-12-14T05:45:40.074Z,72.58
2022-12-14T05:46:39.955Z,72.69
2022-12-14T05:47:39.971Z,72.69
2022-12-14T05:48:40.691Z,72.69
2022-12-14T05:49:39.903Z,72.69
2022-12-14T05:50:39.913Z,73.32
2022-12-14T05:51:39.887Z,73.53
2022-12-14T05:52:39.879Z,73.74
2022-12-14T05:53:39.886Z,73.50
2022-12-14T05:54:39.845Z,73.08
2022-12-14T05:55:39.854Z,73.39
2022-12-14T05:56:39.813Z,73.28
2022-12-14T05:57:39.828Z,72.66
2022-12-14T05:58:39.792Z,74.13
2022-12-14T05:59:39.772Z,76.12
2022-12-14T06:00:39.773Z,76.51
2022-12-14T06:01:39.817Z,73.68
2022-12-14T06:02:39.821Z,73.04
2022-12-14T06:03:39.743Z,74.09
2022-12-14T06:04:39.983Z,73.15
2022-12-14T06:05:39.691Z,71.99
2022-12-14T06:06:39.727Z,71.68
2022-12-14T06:07:39.677Z,71.47
2022-12-14T06:08:39.662Z,71.36
2022-12-14T06:09:39.652Z,71.19
2022-12-14T06:10:39.639Z,71.29
2022-12-14T06:11:39.649Z,84.03
2022-12-14T06:12:39.619Z,96.61
2022-12-14T06:13:39.581Z,95.31
2022-12-14T06:14:39.600Z,86.66
2022-12-14T06:15:39.639Z,76.12
2022-12-14T06:16:39.583Z,70.78
2022-12-14T06:17:39.543Z,69.67
2022-12-14T06:18:39.550Z,69.48
2022-12-14T06:19:39.521Z,69.52
2022-12-14T06:20:39.502Z,69.93
2022-12-14T06:21:39.519Z,70.25
2022-12-14T06:22:44.182Z,70.81
2022-12-14T06:23:40.460Z,71.01
2022-12-14T06:24:39.459Z,71.33
2022-12-14T06:25:39.429Z,71.54
2022-12-14T06:26:39.443Z,71.58
2022-12-14T06:27:39.430Z,71.68
2022-12-14T06:28:39.422Z,71.89
2022-12-14T06:29:39.410Z,71.89
2022-12-14T06:30:39.461Z,71.71
2022-12-14T06:31:39.449Z,71.71
2022-12-14T06:32:39.368Z,71.81
2022-12-14T06:33:39.349Z,72.13
2022-12-14T06:34:42.270Z,72.03
2022-12-14T06:35:39.634Z,72.24
2022-12-14T06:36:39.310Z,72.13
2022-12-14T06:37:39.272Z,71.92
2022-12-14T06:38:39.281Z,72.13
2022-12-14T06:39:39.249Z,71.71
2022-12-14T06:40:39.246Z,71.71
2022-12-14T06:41:39.443Z,71.71
2022-12-14T06:42:41.233Z,71.61
2022-12-14T06:43:39.201Z,71.71
2022-12-14T06:44:39.220Z,72.03
2022-12-14T06:45:39.191Z,71.71
2022-12-14T06:46:39.218Z,71.71
2022-12-14T06:47:39.158Z,71.71
2022-12-14T06:48:39.149Z,71.71
2022-12-14T06:49:39.128Z,71.92
2022-12-14T06:50:39.120Z,71.61
2022-12-14T06:51:39.138Z,71.81
2022-12-14T06:52:39.097Z,71.40
2022-12-14T06:53:39.139Z,71.08
2022-12-14T06:54:39.066Z,71.50
2022-12-14T06:55:39.048Z,71.71
2022-12-14T06:56:39.069Z,71.61
2022-12-14T06:57:39.025Z,71.81
2022-12-14T06:58:39.017Z,71.92
2022-12-14T06:59:39.036Z,71.71
2022-12-14T07:00:38.978Z,71.61
2022-12-14T07:01:39.120Z,71.81
2022-12-14T07:02:39.128Z,71.71
2022-12-14T07:03:39.034Z,71.29
2022-12-14T07:04:38.957Z,71.19
2022-12-14T07:05:41.942Z,70.98
2022-12-14T07:06:39.937Z,70.98
2022-12-14T07:07:38.888Z,71.19
2022-12-14T07:08:38.890Z,71.61
2022-12-14T07:09:38.856Z,71.61
2022-12-14T07:10:38.867Z,71.40
2022-12-14T07:11:38.874Z,71.61
2022-12-14T07:12:38.836Z,71.92
2022-12-14T07:13:38.826Z,72.34
2022-12-14T07:14:38.805Z,71.92
2022-12-14T07:15:38.855Z,71.81
2022-12-14T07:16:39.968Z,71.71
2022-12-14T07:17:38.764Z,72.03
2022-12-14T07:18:38.834Z,71.61
2022-12-14T07:19:38.746Z,71.50
2022-12-14T07:20:38.725Z,71.81
2022-12-14T07:21:38.785Z,72.03
2022-12-14T07:22:38.694Z,72.24
2022-12-14T07:23:38.694Z,72.34
2022-12-14T07:24:38.684Z,72.24
2022-12-14T07:25:38.664Z,72.34
2022-12-14T07:26:38.664Z,72.24
2022-12-14T07:27:38.634Z,72.13
2022-12-14T07:28:38.617Z,71.71
2022-12-14T07:29:38.615Z,71.81
2022-12-14T07:30:38.597Z,72.13
2022-12-14T07:31:38.660Z,72.45
2022-12-14T07:32:38.578Z,72.58
2022-12-14T07:33:38.554Z,72.69
2022-12-14T07:34:38.544Z,73.22
2022-12-14T07:35:38.535Z,73.22
2022-12-14T07:36:38.525Z,73.53
2022-12-14T07:37:38.515Z,73.63
2022-12-14T07:38:38.493Z,74.37
2022-12-14T07:39:38.483Z,74.48
2022-12-14T07:40:38.465Z,74.79
2022-12-14T07:41:38.485Z,75.42
2022-12-14T07:42:38.444Z,75.63
2022-12-14T07:43:38.453Z,76.15
2022-12-14T07:44:38.404Z,76.26
2022-12-14T07:45:38.413Z,76.57
2022-12-14T07:46:38.461Z,77.42
2022-12-14T07:47:38.382Z,77.94
2022-12-14T07:48:38.364Z,78.47
2022-12-14T07:49:38.352Z,78.89
2022-12-14T07:50:38.335Z,78.67
2022-12-14T07:51:38.332Z,78.67
2022-12-14T07:52:38.314Z,78.67
2022-12-14T07:53:38.312Z,78.57
2022-12-14T07:54:38.281Z,78.47
2022-12-14T07:55:38.313Z,78.47
2022-12-14T07:56:38.262Z,78.15
2022-12-14T07:57:38.265Z,78.26
2022-12-14T07:58:38.240Z,78.57
2022-12-14T07:59:38.230Z,78.67
2022-12-14T08:00:38.312Z,78.89
2022-12-14T08:01:38.323Z,78.57
2022-12-14T08:02:38.261Z,78.57
2022-12-14T08:03:38.172Z,78.89
2022-12-14T08:04:38.202Z,79.10
2022-12-14T08:05:38.143Z,78.99
2022-12-14T08:06:38.130Z,78.47
2022-12-14T08:07:38.152Z,78.47
2022-12-14T08:08:38.100Z,78.26
2022-12-14T08:09:38.097Z,78.26
2022-12-14T08:10:40.447Z,78.57
2022-12-14T08:11:38.093Z,78.67
2022-12-14T08:12:38.071Z,78.78
2022-12-14T08:13:38.050Z,78.67
2022-12-14T08:14:38.030Z,78.57
2022-12-14T08:15:38.027Z,78.67
2022-12-14T08:16:38.002Z,78.78
2022-12-14T08:17:38.010Z,78.47
2022-12-14T08:18:37.979Z,78.26
2022-12-14T08:19:37.962Z,78.15
2022-12-14T08:20:37.959Z,78.26
2022-12-14T08:21:37.950Z,78.26
2022-12-14T08:22:37.958Z,78.57
2022-12-14T08:23:37.936Z,78.78
2022-12-14T08:24:37.908Z,78.78
2022-12-14T08:25:37.899Z,78.99
2022-12-14T08:26:37.883Z,79.41
2022-12-14T08:27:37.898Z,79.31
2022-12-14T08:28:37.930Z,79.10
2022-12-14T08:29:37.849Z,79.31
2022-12-14T08:30:37.819Z,79.21
2022-12-14T08:31:37.895Z,79.52
2022-12-14T08:32:37.806Z,80.04
2022-12-14T08:33:37.819Z,80.46
2022-12-14T08:34:37.768Z,80.78
2022-12-14T08:35:37.769Z,81.41
2022-12-14T08:36:37.808Z,81.62
2022-12-14T08:37:40.604Z,81.83
2022-12-14T08:38:38.746Z,82.04
2022-12-14T08:39:37.719Z,82.35
2022-12-14T08:40:37.697Z,82.46
2022-12-14T08:41:37.700Z,82.56
2022-12-14T08:42:37.677Z,82.67
2022-12-14T08:43:37.685Z,82.67
2022-12-14T08:44:37.738Z,82.35
2022-12-14T08:45:37.809Z,82.14
2022-12-14T08:46:37.838Z,82.25
2022-12-14T08:47:37.621Z,82.35
2022-12-14T08:48:37.626Z,82.56
2022-12-14T08:49:37.585Z,82.78
2022-12-14T08:50:37.564Z,82.88
2022-12-14T08:51:37.577Z,82.98
2022-12-14T08:52:37.547Z,83.30
2022-12-14T08:53:37.559Z,83.51
2022-12-14T08:54:37.527Z,83.93
2022-12-14T08:55:38.761Z,84.25
2022-12-14T08:56:37.495Z,84.45
2022-12-14T08:57:37.767Z,84.45
2022-12-14T08:58:37.505Z,84.45
2022-12-14T09:00:00.915Z,84.35
2022-12-14T09:00:38.485Z,84.56
2022-12-14T09:01:37.520Z,84.88
2022-12-14T09:02:37.570Z,84.88
2022-12-14T09:03:37.445Z,84.67
2022-12-14T09:04:37.387Z,84.77
2022-12-14T09:05:37.374Z,84.98
2022-12-14T09:06:37.363Z,84.77
2022-12-14T09:07:37.352Z,84.98
2022-12-14T09:08:37.362Z,85.30
2022-12-14T09:09:37.324Z,85.19
2022-12-14T09:10:37.304Z,85.13
2022-12-14T09:11:37.325Z,85.19
2022-12-14T09:12:37.284Z,85.30
2022-12-14T09:13:37.303Z,85.50
2022-12-14T09:14:37.256Z,85.72
2022-12-14T09:15:37.244Z,85.82
2022-12-14T09:16:37.256Z,85.40
2022-12-14T09:17:37.231Z,85.40
2022-12-14T09:18:37.203Z,85.50
2022-12-14T09:19:37.653Z,85.61
2022-12-14T09:20:37.198Z,85.82
2022-12-14T09:21:37.232Z,86.03
2022-12-14T09:22:37.163Z,86.03
2022-12-14T09:23:37.146Z,85.72
2022-12-14T09:24:37.132Z,85.40
2022-12-14T09:25:37.122Z,85.61
2022-12-14T09:26:37.101Z,85.40
2022-12-14T09:27:37.103Z,85.61
2022-12-14T09:28:37.083Z,85.61
2022-12-14T09:29:37.096Z,85.82
2022-12-14T09:30:37.073Z,85.93
2022-12-14T09:31:37.087Z,85.82
2022-12-14T09:32:37.022Z,85.82
2022-12-14T09:33:37.029Z,85.50
2022-12-14T09:34:37.023Z,85.40
2022-12-14T09:35:36.982Z,85.19
2022-12-14T09:36:37.004Z,85.19
2022-12-14T09:37:36.971Z,84.77
2022-12-14T09:38:36.946Z,84.56
2022-12-14T09:39:36.952Z,84.67
2022-12-14T09:40:36.912Z,84.88
2022-12-14T09:41:36.915Z,84.98
2022-12-14T09:42:36.902Z,84.56
2022-12-14T09:43:37.857Z,84.35
2022-12-14T09:44:36.917Z,84.56
2022-12-14T09:45:36.913Z,84.94
2022-12-14T09:46:36.838Z,85.15
2022-12-14T09:47:36.819Z,85.05
2022-12-14T09:48:36.815Z,84.73
2022-12-14T09:49:36.820Z,84.52
2022-12-14T09:50:36.795Z,84.31
2022-12-14T09:51:36.861Z,83.89
2022-12-14T09:52:36.767Z,83.79
2022-12-14T09:53:36.754Z,83.89
2022-12-14T09:54:36.728Z,83.68
2022-12-14T09:55:36.731Z,83.89
2022-12-14T09:56:37.748Z,83.89
2022-12-14T09:57:36.715Z,84.20
2022-12-14T09:58:36.701Z,84.10
2022-12-14T09:59:36.678Z,84.20
2022-12-14T10:00:36.660Z,84.20
2022-12-14T10:01:36.798Z,84.10
2022-12-14T10:02:36.967Z,84.42
2022-12-14T10:03:37.549Z,84.27
2022-12-14T10:04:36.706Z,84.48
2022-12-14T10:05:36.606Z,84.48
2022-12-14T10:06:36.577Z,84.17
2022-12-14T10:07:36.559Z,84.27
2022-12-14T10:08:36.549Z,84.27
2022-12-14T10:09:36.538Z,84.06
2022-12-14T10:10:36.540Z,84.17
2022-12-14T10:11:36.528Z,84.27
2022-12-14T10:12:36.499Z,83.64
2022-12-14T10:13:36.498Z,83.44
2022-12-14T10:14:42.633Z,83.44
2022-12-14T10:15:37.511Z,82.81
2022-12-14T10:16:36.568Z,82.91
2022-12-14T10:17:36.454Z,83.22
2022-12-14T10:19:37.417Z,84.13
2022-12-14T10:20:36.399Z,84.23
2022-12-14T10:21:36.399Z,84.13
2022-12-14T10:22:36.379Z,84.13
2022-12-14T10:23:36.369Z,84.44
2022-12-14T10:24:36.349Z,84.13
2022-12-14T10:25:36.416Z,83.29
2022-12-14T10:26:36.329Z,82.98
2022-12-14T10:27:54.146Z,82.76
2022-12-14T10:28:37.295Z,82.66
2022-12-14T10:29:36.288Z,82.24
2022-12-14T10:30:36.305Z,82.35
2022-12-14T10:31:36.470Z,82.76
2022-12-14T10:32:36.260Z,82.66
2022-12-14T10:33:36.237Z,82.76
2022-12-14T10:34:36.250Z,82.66
2022-12-14T10:35:36.204Z,82.66
2022-12-14T10:36:36.214Z,82.87
2022-12-14T10:37:36.177Z,82.66
2022-12-14T10:38:36.155Z,82.56
2022-12-14T10:39:36.167Z,82.45
2022-12-14T10:40:36.236Z,82.98
2022-12-14T10:41:36.143Z,83.40
2022-12-14T10:42:36.150Z,83.50
2022-12-14T10:43:36.106Z,83.18
2022-12-14T10:44:36.095Z,83.08
2022-12-14T10:45:40.768Z,83.47
2022-12-14T10:46:37.149Z,83.78
2022-12-14T10:47:36.056Z,83.67
2022-12-14T10:48:36.042Z,83.04
2022-12-14T10:49:36.046Z,82.31
2022-12-14T10:50:36.026Z,82.73
2022-12-14T10:51:36.065Z,82.62
2022-12-14T10:52:35.981Z,82.83
2022-12-14T10:53:40.571Z,82.73
2022-12-14T10:54:37.083Z,82.83
2022-12-14T10:55:36.017Z,82.52
2022-12-14T10:56:36.061Z,81.75
2022-12-14T10:57:36.126Z,81.68
2022-12-14T10:58:36.269Z,81.85
2022-12-14T10:59:40.632Z,82.06
2022-12-14T11:00:37.433Z,82.06
2022-12-14T11:01:36.175Z,82.27
2022-12-14T11:02:36.402Z,82.17
2022-12-14T11:03:36.034Z,82.27
2022-12-14T11:04:35.901Z,82.34
2022-12-14T11:05:36.894Z,82.13
2022-12-14T11:06:35.871Z,81.82
2022-12-14T11:07:35.796Z,81.08
2022-12-14T11:08:35.793Z,80.56
2022-12-14T11:09:36.133Z,79.93
2022-12-14T11:10:35.760Z,80.04
2022-12-14T11:11:35.846Z,80.24
2022-12-14T11:12:36.662Z,80.24
2022-12-14T11:13:35.766Z,79.83
2022-12-14T11:14:35.702Z,79.20
2022-12-14T11:15:35.825Z,78.67
2022-12-14T11:16:36.884Z,78.32
2022-12-14T11:17:35.968Z,78.78
2022-12-14T11:18:35.696Z,78.78
2022-12-14T11:19:35.655Z,78.57
2022-12-14T11:20:35.939Z,78.25
2022-12-14T11:21:36.931Z,78.64
2022-12-14T11:22:35.582Z,79.16
2022-12-14T11:23:35.605Z,78.74
2022-12-14T11:24:35.574Z,78.95
2022-12-14T11:25:36.366Z,78.74
2022-12-14T11:26:35.564Z,78.95
2022-12-14T11:27:35.572Z,79.16
2022-12-14T11:28:37.707Z,78.43
2022-12-14T11:29:35.621Z,78.39
2022-12-14T11:30:35.549Z,76.86
2022-12-14T11:31:35.510Z,77.55
2022-12-14T11:32:35.474Z,77.45
2022-12-14T11:33:35.483Z,76.93
2022-12-14T11:34:35.528Z,76.51
2022-12-14T11:35:35.565Z,76.72
2022-12-14T11:36:35.472Z,76.51
2022-12-14T11:37:35.402Z,76.30
2022-12-14T11:38:35.381Z,76.61
2022-12-14T11:39:35.371Z,77.24
2022-12-14T11:40:35.370Z,77.66
2022-12-14T11:41:35.389Z,77.45
2022-12-14T11:42:35.332Z,76.82
2022-12-14T11:43:35.321Z,76.20
2022-12-14T11:44:35.320Z,75.67
2022-12-14T11:45:35.301Z,75.88
2022-12-14T11:46:39.731Z,76.51
2022-12-14T11:47:36.271Z,75.78
2022-12-14T11:48:35.273Z,76.51
2022-12-14T11:49:35.241Z,76.40
2022-12-14T11:50:35.240Z,76.09
2022-12-14T11:51:35.241Z,76.06
2022-12-14T11:52:35.221Z,76.26
2022-12-14T11:53:35.242Z,76.47
2022-12-14T11:54:35.182Z,75.95
2022-12-14T11:55:35.179Z,75.84
2022-12-14T11:56:35.211Z,75.74
2022-12-14T11:57:35.149Z,75.84
2022-12-14T11:58:35.150Z,75.32
2022-12-14T11:59:35.200Z,75.22
2022-12-14T12:00:35.117Z,75.84
2022-12-14T12:01:35.183Z,75.43
2022-12-14T12:02:35.101Z,75.53
2022-12-14T12:03:35.183Z,75.84
2022-12-14T12:04:35.046Z,75.95
2022-12-14T12:05:35.079Z,75.53
2022-12-14T12:06:35.077Z,75.32
2022-12-14T12:07:35.012Z,75.63
2022-12-14T12:08:35.009Z,75.95
2022-12-14T12:09:34.999Z,75.63
2022-12-14T12:10:34.978Z,75.53
2022-12-14T12:11:34.985Z,75.32
2022-12-14T12:12:34.949Z,75.53
2022-12-14T12:13:34.930Z,75.74
2022-12-14T12:14:34.938Z,75.11
2022-12-14T12:15:35.014Z,74.49
2022-12-14T12:16:34.969Z,74.07
2022-12-14T12:17:34.880Z,74.38
2022-12-14T12:18:34.981Z,74.80
2022-12-14T12:19:34.868Z,75.22
2022-12-14T12:20:34.910Z,75.63
2022-12-14T12:21:34.858Z,75.43
2022-12-14T12:22:34.818Z,75.53
2022-12-14T12:23:34.808Z,75.84
2022-12-14T12:24:34.807Z,75.95
2022-12-14T12:25:37.409Z,87.13
2022-12-14T12:26:34.778Z,99.75
2022-12-14T12:27:34.748Z,99.99
2022-12-14T12:28:34.748Z,99.99
2022-12-14T12:29:34.741Z,99.99
2022-12-14T12:30:34.718Z,95.20
2022-12-14T12:31:34.783Z,89.15
2022-12-14T12:32:34.688Z,73.63
2022-12-14T12:33:34.688Z,67.16
2022-12-14T12:34:34.669Z,64.83
2022-12-14T12:35:34.653Z,64.48
2022-12-14T12:36:34.650Z,65.26
2022-12-14T12:37:35.638Z,66.89
2022-12-14T12:38:34.618Z,67.41
2022-12-14T12:39:34.601Z,67.65
2022-12-14T12:40:34.629Z,68.10
2022-12-14T12:41:34.578Z,69.48
2022-12-14T12:42:34.599Z,70.76
2022-12-14T12:43:34.561Z,71.50
2022-12-14T12:44:34.558Z,70.80
2022-12-14T12:45:34.524Z,70.80
2022-12-14T12:46:37.894Z,71.36
2022-12-14T12:47:46.508Z,70.94
2022-12-14T12:48:35.487Z,71.25
2022-12-14T12:49:34.475Z,72.02
2022-12-14T12:50:34.470Z,71.80
2022-12-14T12:51:34.458Z,71.59
2022-12-14T12:52:34.458Z,71.28
2022-12-14T12:53:34.415Z,71.59